createdAt,value
2018-01-29T00:00:09.137Z,101812.83
2018-01-29T00:02:34.922Z,101814.84
2018-01-29T00:05:00.688Z,101821.03
2018-01-29T00:07:26.473Z,101812.26
2018-01-29T00:09:52.242Z,101813.91
2018-01-29T00:12:18.017Z,101811.36
2018-01-29T00:14:43.789Z,101808.25
2018-01-29T00:17:09.563Z,101806.98
2018-01-29T00:19:36.321Z,101807.06
2018-01-29T00:22:02.190Z,101807.69
2018-01-29T00:24:27.973Z,101810.75
2018-01-29T00:26:53.745Z,101805.54
2018-01-29T00:29:19.522Z,101806.79
2018-01-29T00:31:45.357Z,101812.41
2018-01-29T00:34:11.142Z,101803.09
2018-01-29T00:36:36.913Z,101804.90
2018-01-29T00:39:02.745Z,101806.55
2018-01-29T00:41:28.802Z,101799.42
2018-01-29T00:43:54.572Z,101791.31
2018-01-29T00:46:20.340Z,101792.83
2018-01-29T00:48:46.121Z,101792.42
2018-01-29T00:51:11.894Z,101792.31
2018-01-29T00:53:37.669Z,101787.18
2018-01-29T00:56:03.462Z,101794.39
2018-01-29T00:58:29.246Z,101798.89
2018-01-29T01:00:55.026Z,101793.56
2018-01-29T01:03:20.804Z,101800.41
2018-01-29T01:05:46.696Z,101787.31
2018-01-29T01:08:12.470Z,101793.19
2018-01-29T01:10:38.246Z,101786.03
2018-01-29T01:13:04.065Z,101795.87
2018-01-29T01:15:29.845Z,101791.75
2018-01-29T01:17:55.806Z,101798.91
2018-01-29T01:20:21.580Z,101794.62
2018-01-29T01:22:47.358Z,101785.62
2018-01-29T01:25:13.194Z,101791.33
2018-01-29T01:27:39.001Z,101790.50
2018-01-29T01:30:04.918Z,101788.34
2018-01-29T01:32:30.697Z,101793.36
2018-01-29T01:34:56.473Z,101782.39
2018-01-29T01:37:22.288Z,101782.79
2018-01-29T01:39:48.198Z,101777.77
2018-01-29T01:42:14.037Z,101780.73
2018-01-29T01:44:39.805Z,101780.65
2018-01-29T01:47:05.618Z,101782.84
2018-01-29T01:49:31.873Z,101777.62
2018-01-29T01:51:57.686Z,101777.21
2018-01-29T01:54:23.465Z,101773.41
2018-01-29T01:56:49.281Z,101776.55
2018-01-29T01:59:15.101Z,101770.02
2018-01-29T02:01:41.021Z,101773.54
2018-01-29T02:04:07.782Z,101770.79
2018-01-29T02:06:34.517Z,101770.23
2018-01-29T02:09:00.285Z,101771.92
2018-01-29T02:11:26.109Z,101772.35
2018-01-29T02:13:52.765Z,101757.61
2018-01-29T02:16:18.525Z,101767.17
2018-01-29T02:18:44.289Z,101763.56
2018-01-29T02:21:10.146Z,101762.09
2018-01-29T02:23:36.797Z,101756.13
2018-01-29T02:26:02.605Z,101763.39
2018-01-29T02:28:28.373Z,101765.81
2018-01-29T02:30:55.050Z,101756.61
2018-01-29T02:33:20.820Z,101757.27
2018-01-29T02:35:46.594Z,101766.20
2018-01-29T02:38:12.364Z,101761.05
2018-01-29T02:40:38.223Z,101759.14
2018-01-29T02:43:03.973Z,101751.50
2018-01-29T02:45:29.769Z,101753.05
2018-01-29T02:47:55.541Z,101748.05
2018-01-29T02:50:22.189Z,101737.48
2018-01-29T02:52:49.116Z,101735.76
2018-01-29T02:55:15.980Z,101735.17
2018-01-29T02:57:42.616Z,101733.28
2018-01-29T03:00:08.441Z,101720.31
2018-01-29T03:02:34.262Z,101723.86
2018-01-29T03:05:00.938Z,101723.33
2018-01-29T03:07:26.714Z,101720.14
2018-01-29T03:09:52.480Z,101715.98
2018-01-29T03:12:19.277Z,101722.16
2018-01-29T03:14:46.233Z,101718.69
2018-01-29T03:17:12.017Z,101718.74
2018-01-29T03:19:38.729Z,101717.50
2018-01-29T03:22:04.496Z,101710.82
2018-01-29T03:24:30.265Z,101710.88
2018-01-29T03:26:56.038Z,101704.68
2018-01-29T03:29:21.808Z,101706.56
2018-01-29T03:31:48.469Z,101703.95
2018-01-29T03:34:14.241Z,101701.23
2018-01-29T03:36:40.041Z,101700.14
2018-01-29T03:39:05.800Z,101695.00
2018-01-29T03:41:31.576Z,101698.87
2018-01-29T03:43:58.193Z,101693.94
2018-01-29T03:46:23.969Z,101697.06
2018-01-29T03:48:49.741Z,101688.17
2018-01-29T03:51:15.509Z,101684.98
2018-01-29T03:53:41.301Z,101688.82
2018-01-29T03:56:07.073Z,101686.48
2018-01-29T03:58:32.848Z,101684.98
2018-01-29T04:00:58.786Z,101688.94
2018-01-29T04:03:24.561Z,101683.73
2018-01-29T04:05:50.334Z,101681.27
2018-01-29T04:08:16.102Z,101674.76
2018-01-29T04:10:41.875Z,101678.39
2018-01-29T04:13:08.477Z,101672.30
2018-01-29T04:15:34.249Z,101676.95
2018-01-29T04:18:00.024Z,101667.84
2018-01-29T04:20:25.797Z,101655.47
2018-01-29T04:22:51.571Z,101652.17
2018-01-29T04:25:17.368Z,101652.98
2018-01-29T04:27:43.165Z,101658.64
2018-01-29T04:30:08.929Z,101659.83
2018-01-29T04:32:34.768Z,101664.63
2018-01-29T04:35:00.574Z,101664.27
2018-01-29T04:37:26.380Z,101655.91
2018-01-29T04:39:53.016Z,101650.65
2018-01-29T04:42:18.823Z,101650.47
2018-01-29T04:44:45.597Z,101638.45
2018-01-29T04:47:12.428Z,101638.59
2018-01-29T04:49:38.197Z,101643.41
2018-01-29T04:52:03.969Z,101646.09
2018-01-29T04:54:29.736Z,101638.38
2018-01-29T04:56:56.304Z,101639.67
2018-01-29T04:59:22.121Z,101646.27
2018-01-29T05:01:47.884Z,101635.38
2018-01-29T05:04:14.629Z,101643.30
2018-01-29T05:06:41.180Z,101648.27
2018-01-29T05:09:06.996Z,101644.83
2018-01-29T05:11:33.753Z,101648.00
2018-01-29T05:13:59.525Z,101641.46
2018-01-29T05:16:25.336Z,101637.20
2018-01-29T05:18:51.901Z,101638.33
2018-01-29T05:21:17.732Z,101629.77
2018-01-29T05:23:44.309Z,101635.23
2018-01-29T05:26:10.084Z,101640.80
2018-01-29T05:28:35.872Z,101637.11
2018-01-29T05:31:02.622Z,101634.47
2018-01-29T05:33:29.397Z,101628.30
2018-01-29T05:36:01.297Z,101632.27
2018-01-29T05:38:27.093Z,101629.80
2018-01-29T05:40:52.860Z,101627.89
2018-01-29T05:43:18.633Z,101631.23
2018-01-29T05:45:45.424Z,101630.55
2018-01-29T05:48:12.195Z,101631.69
2018-01-29T05:50:37.977Z,101629.34
2018-01-29T05:53:03.941Z,101632.34
2018-01-29T05:55:29.716Z,101628.45
2018-01-29T05:57:55.555Z,101626.59
2018-01-29T06:00:21.319Z,101637.28
2018-01-29T06:02:47.081Z,101632.84
2018-01-29T06:05:13.785Z,101631.33
2018-01-29T06:07:39.556Z,101636.99
2018-01-29T06:10:06.250Z,101632.28
2018-01-29T06:12:32.945Z,101637.41
2018-01-29T06:14:59.764Z,101642.26
2018-01-29T06:17:25.541Z,101637.08
2018-01-29T06:19:51.314Z,101645.55
2018-01-29T06:22:17.093Z,101641.55
2018-01-29T06:24:43.649Z,101637.55
2018-01-29T06:27:10.372Z,101636.11
2018-01-29T06:29:37.050Z,101636.53
2018-01-29T06:32:03.776Z,101634.85
2018-01-29T06:34:29.544Z,101631.44
2018-01-29T06:36:55.313Z,101626.58
2018-01-29T06:39:21.277Z,101617.81
2018-01-29T06:41:47.049Z,101619.02
2018-01-29T06:44:13.786Z,101620.77
2018-01-29T06:46:40.473Z,101609.39
2018-01-29T06:49:07.185Z,101604.73
2018-01-29T06:51:32.954Z,101598.69
2018-01-29T06:53:58.732Z,101598.10
2018-01-29T06:56:25.372Z,101593.05
2018-01-29T06:58:52.054Z,101586.66
2018-01-29T07:01:17.826Z,101592.89
2018-01-29T07:03:43.609Z,101590.98
2018-01-29T07:06:09.416Z,101592.08
2018-01-29T07:08:36.021Z,101596.02
2018-01-29T07:11:01.845Z,101601.23
2018-01-29T07:13:27.641Z,101603.19
2018-01-29T07:15:53.413Z,101603.58
2018-01-29T07:18:19.980Z,101603.09
2018-01-29T07:20:45.753Z,101601.81
2018-01-29T07:23:11.557Z,101606.39
2018-01-29T07:25:37.324Z,101608.39
2018-01-29T07:28:03.141Z,101602.00
2018-01-29T07:30:28.937Z,101597.25
2018-01-29T07:32:54.718Z,101595.77
2018-01-29T07:35:20.636Z,101593.72
2018-01-29T07:37:46.414Z,101591.52
2018-01-29T07:40:12.214Z,101587.53
2018-01-29T07:42:37.994Z,101582.13
2018-01-29T07:45:03.791Z,101576.31
2018-01-29T07:47:29.649Z,101572.94
2018-01-29T07:49:55.429Z,101572.03
2018-01-29T07:52:21.209Z,101565.63
2018-01-29T07:54:46.986Z,101561.33
2018-01-29T07:57:12.837Z,101554.86
2018-01-29T07:59:38.624Z,101558.82
2018-01-29T08:02:04.402Z,101559.33
2018-01-29T08:04:30.189Z,101552.27
2018-01-29T08:06:55.974Z,101561.66
2018-01-29T08:09:22.642Z,101557.60
2018-01-29T08:11:49.413Z,101552.94
2018-01-29T08:14:15.244Z,101548.25
2018-01-29T08:16:41.245Z,101550.75
2018-01-29T08:19:07.121Z,101552.20
2018-01-29T08:21:33.026Z,101550.36
2018-01-29T08:23:58.828Z,101541.27
2018-01-29T08:26:25.469Z,101544.23
2018-01-29T08:28:51.570Z,101538.80
2018-01-29T08:31:17.570Z,101538.74
2018-01-29T08:33:43.393Z,101535.68
2018-01-29T08:36:09.177Z,101527.77
2018-01-29T08:38:34.957Z,101535.89
2018-01-29T08:41:00.743Z,101542.01
2018-01-29T08:43:26.573Z,101541.80
2018-01-29T08:45:53.253Z,101541.16
2018-01-29T08:48:19.042Z,101537.00
2018-01-29T08:50:44.893Z,101522.04
2018-01-29T08:53:10.676Z,101527.41
2018-01-29T08:55:36.491Z,101519.75
2018-01-29T08:58:02.306Z,101510.23
2018-01-29T09:00:28.161Z,101500.12
2018-01-29T09:02:53.945Z,101499.45
2018-01-29T09:05:19.728Z,101498.98
2018-01-29T09:07:45.551Z,101491.52
2018-01-29T09:10:12.186Z,101489.36
2018-01-29T09:12:37.979Z,101490.72
2018-01-29T09:15:03.802Z,101484.28
2018-01-29T09:17:29.624Z,101476.93
2018-01-29T09:19:55.411Z,101475.92
2018-01-29T09:22:21.195Z,101464.09
2018-01-29T09:24:46.974Z,101457.30
2018-01-29T09:27:12.826Z,101454.90
2018-01-29T09:29:39.008Z,101461.53
2018-01-29T09:32:04.789Z,101467.73
2018-01-29T09:34:30.625Z,101468.78
2018-01-29T09:36:56.409Z,101471.69
2018-01-29T09:39:23.040Z,101464.11
2018-01-29T09:41:48.827Z,101475.02
2018-01-29T09:44:14.890Z,101466.88
2018-01-29T09:46:40.669Z,101476.14
2018-01-29T09:49:07.458Z,101478.88
2018-01-29T09:51:33.237Z,101471.76
2018-01-29T09:54:00.006Z,101467.84
2018-01-29T09:56:25.926Z,101466.32
2018-01-29T09:58:52.538Z,101463.07
2018-01-29T10:01:19.259Z,101471.48
2018-01-29T10:03:46.055Z,101469.59
2018-01-29T10:06:12.934Z,101474.97
2018-01-29T10:08:39.578Z,101472.12
2018-01-29T10:11:06.361Z,101456.52
2018-01-29T10:13:32.217Z,101466.41
2018-01-29T10:15:58.029Z,101461.97
2018-01-29T10:18:24.649Z,101460.79
2018-01-29T10:20:50.454Z,101456.36
2018-01-29T10:23:16.235Z,101451.16
2018-01-29T10:25:42.018Z,101459.80
2018-01-29T10:28:08.753Z,101451.52
2018-01-29T10:30:34.541Z,101442.75
2018-01-29T10:33:00.319Z,101433.20
2018-01-29T10:35:27.081Z,101432.23
2018-01-29T10:37:52.865Z,101441.13
2018-01-29T10:40:18.645Z,101427.38
2018-01-29T10:42:44.430Z,101430.13
2018-01-29T10:45:10.210Z,101417.08
2018-01-29T10:47:35.996Z,101421.30
2018-01-29T10:50:01.789Z,101419.20
2018-01-29T10:52:28.428Z,101406.69
2018-01-29T10:54:54.241Z,101413.98
2018-01-29T10:57:20.076Z,101415.67
2018-01-29T10:59:45.862Z,101399.23
2018-01-29T11:02:11.662Z,101401.58
2018-01-29T11:04:37.470Z,101396.44
2018-01-29T11:07:03.246Z,101396.20
2018-01-29T11:09:29.209Z,101390.67
2018-01-29T11:12:08.052Z,101391.58
2018-01-29T11:14:51.106Z,101379.47
2018-01-29T11:17:21.415Z,101384.94
2018-01-29T11:22:32.353Z,101384.05
2018-01-29T11:25:00.413Z,101369.33
2018-01-29T11:27:26.223Z,101372.05
2018-01-29T11:29:52.025Z,101376.04
2018-01-29T11:32:18.016Z,101382.31
2018-01-29T11:34:43.784Z,101379.67
2018-01-29T11:37:09.566Z,101373.06
2018-01-29T11:39:35.353Z,101378.17
2018-01-29T11:42:01.316Z,101371.38
2018-01-29T11:44:27.095Z,101360.30
2018-01-29T11:46:54.770Z,101357.80
2018-01-29T11:49:21.042Z,101349.36
2018-01-29T11:51:48.580Z,101338.30
2018-01-29T11:54:15.315Z,101342.36
2018-01-29T11:56:41.259Z,101350.73
2018-01-29T11:59:09.705Z,101346.22
2018-01-29T12:01:36.337Z,101326.92
2018-01-29T12:04:03.986Z,101332.43
2018-01-29T12:06:31.174Z,101324.55
2018-01-29T12:08:59.316Z,101328.02
2018-01-29T12:11:25.746Z,101320.70
2018-01-29T12:13:53.445Z,101318.68
2018-01-29T12:16:21.316Z,101313.22
2018-01-29T12:18:47.842Z,101305.75
2018-01-29T12:21:15.688Z,101303.98
2018-01-29T12:23:43.465Z,101301.91
2018-01-29T12:26:10.043Z,101314.48
2018-01-29T12:28:37.051Z,101308.05
2018-01-29T12:31:03.984Z,101298.83
2018-01-29T12:33:30.826Z,101284.89
2018-01-29T12:35:58.281Z,101284.20
2018-01-29T12:38:26.747Z,101280.36
2018-01-29T12:40:53.065Z,101284.41
2018-01-29T12:43:21.140Z,101275.91
2018-01-29T12:45:49.725Z,101271.42
2018-01-29T12:48:16.724Z,101269.88
2018-01-29T12:50:45.647Z,101266.17
2018-01-29T12:53:14.296Z,101264.16
2018-01-29T12:55:41.534Z,101263.86
2018-01-29T12:58:08.735Z,101264.67
2018-01-29T13:00:35.181Z,101267.28
2018-01-29T13:03:01.343Z,101247.31
2018-01-29T13:05:27.157Z,101248.62
2018-01-29T13:07:52.979Z,101252.62
2018-01-29T13:10:19.598Z,101242.77
2018-01-29T13:12:45.406Z,101253.33
2018-01-29T13:15:11.194Z,101248.44
2018-01-29T13:17:37.034Z,101231.29
2018-01-29T13:20:02.806Z,101228.38
2018-01-29T13:22:28.593Z,101232.05
2018-01-29T13:24:54.410Z,101216.02
2018-01-29T13:27:20.191Z,101211.50
2018-01-29T13:29:46.063Z,101196.63
2018-01-29T13:32:12.855Z,101204.48
2018-01-29T13:34:38.993Z,101188.77
2018-01-29T13:37:04.814Z,101181.89
2018-01-29T13:39:30.638Z,101165.68
2018-01-29T13:41:57.256Z,101174.09
2018-01-29T13:44:23.035Z,101182.58
2018-01-29T13:46:48.810Z,101177.98
2018-01-29T13:49:15.552Z,101187.38
2018-01-29T13:51:42.249Z,101187.52
2018-01-29T13:54:08.030Z,101171.31
2018-01-29T13:56:33.988Z,101175.89
2018-01-29T13:58:59.758Z,101173.46
2018-01-29T14:01:26.526Z,101180.23
2018-01-29T14:03:52.306Z,101174.16
2018-01-29T14:06:18.938Z,101170.41
2018-01-29T14:08:45.632Z,101168.58
2018-01-29T14:11:11.407Z,101162.95
2018-01-29T14:13:37.189Z,101162.39
2018-01-29T14:16:02.973Z,101158.09
2018-01-29T14:18:28.759Z,101154.75
2018-01-29T14:20:54.546Z,101150.44
2018-01-29T14:23:20.326Z,101157.59
2018-01-29T14:25:46.136Z,101160.58
2018-01-29T14:28:11.909Z,101151.81
2018-01-29T14:30:38.381Z,101154.73
2018-01-29T14:33:04.154Z,101144.22
2018-01-29T14:35:30.860Z,101138.87
2018-01-29T14:37:56.638Z,101139.42
2018-01-29T14:40:22.413Z,101139.07
2018-01-29T14:42:49.118Z,101129.00
2018-01-29T14:45:14.937Z,101135.06
2018-01-29T14:47:40.714Z,101114.31
2018-01-29T14:50:06.529Z,101115.28
2018-01-29T14:52:32.312Z,101120.30
2018-01-29T14:54:58.285Z,101123.08
2018-01-29T14:57:24.097Z,101112.92
2018-01-29T14:59:50.717Z,101103.41
2018-01-29T15:02:16.489Z,101122.61
2018-01-29T15:04:42.317Z,101108.14
2018-01-29T15:07:08.092Z,101105.28
2018-01-29T15:09:33.869Z,101103.91
2018-01-29T15:11:59.642Z,101098.67
2018-01-29T15:14:25.430Z,101107.44
2018-01-29T15:16:51.205Z,101111.21
2018-01-29T15:19:17.021Z,101105.64
2018-01-29T15:21:42.837Z,101086.37
2018-01-29T15:24:08.621Z,101095.98
2018-01-29T15:26:34.406Z,101104.92
2018-01-29T15:29:00.189Z,101090.86
2018-01-29T15:31:25.961Z,101097.89
2018-01-29T15:33:51.737Z,101088.41
2018-01-29T15:36:17.514Z,101089.66
2018-01-29T15:38:43.293Z,101079.09
2018-01-29T15:41:09.126Z,101076.25
2018-01-29T15:43:34.906Z,101079.11
2018-01-29T15:46:00.677Z,101067.34
2018-01-29T15:48:26.497Z,101062.80
2018-01-29T15:50:52.274Z,101061.28
2018-01-29T15:53:19.030Z,101062.86
2018-01-29T15:55:45.797Z,101059.31
2018-01-29T15:58:11.578Z,101062.73
2018-01-29T16:00:37.389Z,101058.80
2018-01-29T16:03:04.042Z,101051.70
2018-01-29T16:05:29.819Z,101045.71
2018-01-29T16:07:56.552Z,101045.48
2018-01-29T16:10:23.276Z,101057.83
2018-01-29T16:12:50.115Z,101041.20
2018-01-29T16:15:15.921Z,101032.92
2018-01-29T16:17:41.694Z,101044.34
2018-01-29T16:20:07.705Z,101031.04
2018-01-29T16:22:33.625Z,101036.62
2018-01-29T16:24:59.661Z,101028.69
2018-01-29T16:27:25.440Z,101031.33
2018-01-29T16:29:51.210Z,101029.17
2018-01-29T16:32:16.982Z,101019.24
2018-01-29T16:34:42.850Z,101022.91
2018-01-29T16:37:08.637Z,101023.81
2018-01-29T16:39:34.449Z,101013.08
2018-01-29T16:42:00.316Z,101020.11
2018-01-29T16:44:26.100Z,101018.47
2018-01-29T16:46:52.013Z,101023.87
2018-01-29T16:49:17.929Z,101010.66
2018-01-29T16:51:43.747Z,101004.83
2018-01-29T16:54:09.597Z,101007.67
2018-01-29T16:56:35.392Z,101011.28
2018-01-29T16:59:01.310Z,101007.41
2018-01-29T17:01:27.145Z,101020.14
2018-01-29T17:03:52.962Z,101016.24
2018-01-29T17:06:18.744Z,101015.89
2018-01-29T17:08:44.540Z,101004.31
2018-01-29T17:11:10.405Z,101002.19
2018-01-29T17:13:36.185Z,100998.70
2018-01-29T17:16:01.970Z,101001.22
2018-01-29T17:18:27.737Z,100990.55
2018-01-29T17:20:53.513Z,100991.20
2018-01-29T17:23:19.441Z,100993.13
2018-01-29T17:25:46.193Z,100985.25
2018-01-29T17:28:11.959Z,100979.07
2018-01-29T17:30:38.541Z,100980.77
2018-01-29T17:33:05.336Z,100977.75
2018-01-29T17:35:31.936Z,100977.38
2018-01-29T17:37:57.764Z,100980.80
2018-01-29T17:40:23.537Z,100983.33
2018-01-29T17:42:49.314Z,100980.51
2018-01-29T17:45:15.262Z,100970.88
2018-01-29T17:47:42.043Z,100964.41
2018-01-29T17:50:07.821Z,100963.06
2018-01-29T17:52:33.601Z,100965.07
2018-01-29T17:54:59.376Z,100958.45
2018-01-29T17:57:26.111Z,100962.30
2018-01-29T17:59:51.951Z,100957.80
2018-01-29T18:02:17.709Z,100941.52
2018-01-29T18:04:43.486Z,100946.38
2018-01-29T18:07:09.429Z,100953.83
2018-01-29T18:09:35.212Z,100943.30
2018-01-29T18:12:00.997Z,100945.70
2018-01-29T18:14:26.790Z,100948.47
2018-01-29T18:16:52.641Z,100931.30
2018-01-29T18:19:18.424Z,100939.10
2018-01-29T18:21:44.193Z,100950.35
2018-01-29T18:24:09.969Z,100942.16
2018-01-29T18:26:35.746Z,100943.84
2018-01-29T18:29:01.525Z,100943.08
2018-01-29T18:31:27.302Z,100938.50
2018-01-29T18:33:53.090Z,100940.72
2018-01-29T18:36:18.877Z,100932.00
2018-01-29T18:38:44.697Z,100926.02
2018-01-29T18:41:10.482Z,100933.23
2018-01-29T18:43:36.356Z,100940.67
2018-01-29T18:46:02.142Z,100929.62
2018-01-29T18:48:27.932Z,100929.37
2018-01-29T18:50:53.717Z,100930.50
2018-01-29T18:53:19.554Z,100927.15
2018-01-29T18:55:45.346Z,100930.62
2018-01-29T18:58:11.123Z,100938.68
2018-01-29T19:00:36.921Z,100945.13
2018-01-29T19:03:02.701Z,100946.75
2018-01-29T19:05:28.617Z,100936.61
2018-01-29T19:07:54.393Z,100938.31
2018-01-29T19:10:20.296Z,100937.66
2018-01-29T19:12:46.074Z,100940.79
2018-01-29T19:15:11.942Z,100940.02
2018-01-29T19:17:37.733Z,100950.12
2018-01-29T19:20:03.537Z,100937.19
2018-01-29T19:22:29.333Z,100932.91
2018-01-29T19:24:55.145Z,100923.34
2018-01-29T19:27:20.918Z,100926.97
2018-01-29T19:29:46.890Z,100927.15
2018-01-29T19:32:12.685Z,100919.39
2018-01-29T19:34:38.470Z,100922.89
2018-01-29T19:37:04.257Z,100903.78
2018-01-29T19:39:30.041Z,100919.34
2018-01-29T19:42:02.802Z,100913.92
2018-01-29T19:44:28.586Z,100901.25
2018-01-29T19:46:54.434Z,100899.75
2018-01-29T19:49:20.225Z,100897.66
2018-01-29T19:51:46.026Z,100893.23
2018-01-29T19:54:11.817Z,100896.33
2018-01-29T19:56:37.605Z,100907.32
2018-01-29T19:59:03.433Z,100901.03
2018-01-29T20:01:29.218Z,100902.41
2018-01-29T20:03:55.077Z,100892.30
2018-01-29T20:06:20.875Z,100900.73
2018-01-29T20:08:47.585Z,100906.66
2018-01-29T20:11:14.305Z,100910.69
2018-01-29T20:13:40.107Z,100909.91
2018-01-29T20:16:05.900Z,100906.62
2018-01-29T20:18:31.681Z,100917.78
2018-01-29T20:20:57.478Z,100922.52
2018-01-29T20:23:23.379Z,100914.59
2018-01-29T20:25:49.170Z,100913.02
2018-01-29T20:28:14.996Z,100909.49
2018-01-29T20:30:40.792Z,100913.66
2018-01-29T20:33:06.582Z,100904.43
2018-01-29T20:35:32.426Z,100911.36
2018-01-29T20:37:58.217Z,100911.36
2018-01-29T20:40:23.997Z,100915.07
2018-01-29T20:42:49.812Z,100920.96
2018-01-29T20:45:15.603Z,100925.28
2018-01-29T20:47:41.404Z,100940.84
2018-01-29T20:50:07.887Z,100959.36
2018-01-29T20:52:33.932Z,100969.44
2018-01-29T20:54:59.721Z,100973.27
2018-01-29T20:57:25.507Z,100980.01
2018-01-29T20:59:51.288Z,100993.64
2018-01-29T21:02:17.271Z,100998.48
2018-01-29T21:04:43.054Z,101003.99
2018-01-29T21:07:09.760Z,101014.02
2018-01-29T21:09:35.545Z,101024.45
2018-01-29T21:12:01.333Z,101029.13
2018-01-29T21:14:27.127Z,101034.50
2018-01-29T21:16:53.053Z,101043.89
2018-01-29T21:19:18.885Z,101042.44
2018-01-29T21:21:44.669Z,101055.93
2018-01-29T21:24:10.494Z,101053.73
2018-01-29T21:26:36.285Z,101063.16
2018-01-29T21:29:02.122Z,101060.91
2018-01-29T21:31:27.917Z,101055.58
2018-01-29T21:33:53.741Z,101064.72
2018-01-29T21:36:20.654Z,101072.78
2018-01-29T21:38:46.597Z,101086.40
2018-01-29T21:41:12.528Z,101098.56
2018-01-29T21:43:38.474Z,101101.26
2018-01-29T21:46:04.349Z,101109.49
2018-01-29T21:48:30.198Z,101123.98
2018-01-29T21:50:55.983Z,101124.27
2018-01-29T21:53:21.976Z,101132.64
2018-01-29T21:55:48.774Z,101132.56
2018-01-29T21:58:14.747Z,101140.21
2018-01-29T22:00:40.861Z,101140.27
2018-01-29T22:03:06.809Z,101139.23
2018-01-29T22:05:32.865Z,101126.11
2018-01-29T22:07:58.747Z,101138.87
2018-01-29T22:10:24.804Z,101145.41
2018-01-29T22:12:51.541Z,101134.94
2018-01-29T22:15:17.562Z,101147.72
2018-01-29T22:17:43.549Z,101153.35
2018-01-29T22:20:10.263Z,101157.36
2018-01-29T22:22:38.336Z,101173.16
2018-01-29T22:25:08.820Z,101176.06
2018-01-29T22:27:35.765Z,101175.18
2018-01-29T22:30:01.547Z,101197.70
2018-01-29T22:32:37.883Z,101211.85
2018-01-29T22:35:06.111Z,101220.02
2018-01-29T22:37:31.932Z,101221.81
2018-01-29T22:40:01.808Z,101212.80
2018-01-29T22:42:30.360Z,101216.45
2018-01-29T22:44:56.178Z,101227.43
2018-01-29T22:47:23.264Z,101212.81
2018-01-29T22:49:50.154Z,101213.66
2018-01-29T22:52:18.261Z,101222.92
2018-01-29T22:54:45.226Z,101225.93
2018-01-29T22:57:12.288Z,101236.53
2018-01-29T22:59:40.669Z,101243.28
2018-01-29T23:02:06.529Z,101250.94
2018-01-29T23:04:32.342Z,101258.81
2018-01-29T23:06:58.126Z,101253.70
2018-01-29T23:09:23.909Z,101273.16
2018-01-29T23:11:49.692Z,101287.96
2018-01-29T23:14:15.469Z,101313.39
2018-01-29T23:16:41.260Z,101301.90
2018-01-29T23:19:07.044Z,101288.47
2018-01-29T23:21:32.826Z,101304.66
2018-01-29T23:23:59.444Z,101293.73
2018-01-29T23:26:25.230Z,101317.42
2018-01-29T23:28:51.006Z,101331.14
2018-01-29T23:31:17.505Z,101329.00
2018-01-29T23:33:43.308Z,101346.11
2018-01-29T23:36:09.245Z,101343.84
2018-01-29T23:38:35.029Z,101343.30
2018-01-29T23:41:00.809Z,101328.99
2018-01-29T23:43:26.625Z,101339.30
2018-01-29T23:45:53.250Z,101339.58
2018-01-29T23:48:19.079Z,101342.92
2018-01-29T23:50:45.853Z,101342.70
2018-01-29T23:53:11.644Z,101343.56
2018-01-29T23:55:37.441Z,101356.75
2018-01-29T23:58:03.230Z,101355.17
